createdAt,value
2019-01-21T00:00:46.581Z,8.73
2019-01-21T00:03:15.759Z,9.60
2019-01-21T00:05:45.003Z,8.13
2019-01-21T00:08:14.409Z,8.40
2019-01-21T00:10:43.543Z,7.00
2019-01-21T00:13:12.581Z,8.27
2019-01-21T00:15:41.722Z,7.63
2019-01-21T00:18:10.793Z,7.13
2019-01-21T00:20:39.876Z,8.00
2019-01-21T00:23:08.925Z,9.03
2019-01-21T00:25:37.970Z,8.20
2019-01-21T00:28:07.005Z,9.97
2019-01-21T00:30:36.357Z,9.33
2019-01-21T00:33:05.385Z,9.77
2019-01-21T00:35:34.420Z,8.93
2019-01-21T00:38:03.590Z,8.73
2019-01-21T00:40:32.625Z,9.20
2019-01-21T00:43:01.663Z,9.33
2019-01-21T00:45:30.710Z,8.50
2019-01-21T00:47:59.853Z,8.73
2019-01-21T00:50:29.212Z,9.77
2019-01-21T00:52:58.258Z,9.70
2019-01-21T00:55:27.269Z,8.93
2019-01-21T00:57:56.316Z,9.17
2019-01-21T01:00:26.877Z,10.50
2019-01-21T01:02:55.919Z,9.43
2019-01-21T01:05:25.445Z,8.53
2019-01-21T01:07:54.500Z,8.80
2019-01-21T01:10:23.552Z,8.70
2019-01-21T01:12:52.629Z,8.53
2019-01-21T01:15:21.693Z,8.97
2019-01-21T01:17:50.712Z,8.87
2019-01-21T01:20:21.422Z,9.43
2019-01-21T01:22:50.496Z,8.87
2019-01-21T01:25:19.614Z,8.37
2019-01-21T01:27:50.146Z,8.70
2019-01-21T01:30:19.190Z,8.43
2019-01-21T01:32:48.229Z,9.90
2019-01-21T01:35:17.752Z,8.00
2019-01-21T01:37:46.877Z,8.33
2019-01-21T01:40:17.812Z,9.20
2019-01-21T01:42:47.028Z,7.87
2019-01-21T01:45:22.833Z,9.47
2019-01-21T01:48:01.381Z,8.03
2019-01-21T01:50:30.771Z,8.37
2019-01-21T01:52:59.994Z,8.07
2019-01-21T01:55:30.633Z,8.90
2019-01-21T01:58:09.293Z,8.40
2019-01-21T02:00:38.320Z,8.63
2019-01-21T02:03:07.408Z,9.00
2019-01-21T02:05:36.463Z,9.33
2019-01-21T02:08:05.813Z,8.67
2019-01-21T02:10:34.854Z,8.90
2019-01-21T02:13:04.409Z,8.40
2019-01-21T02:15:33.443Z,8.87
2019-01-21T02:18:02.484Z,8.30
2019-01-21T02:20:31.548Z,8.90
2019-01-21T02:23:04.417Z,9.10
2019-01-21T02:25:44.922Z,9.70
2019-01-21T02:28:56.680Z,8.00
2019-01-21T02:32:16.953Z,8.83
2019-01-21T02:35:16.265Z,9.40
2019-01-21T02:38:34.600Z,8.53
2019-01-21T02:41:41.048Z,7.70
2019-01-21T02:44:48.524Z,8.00
2019-01-21T02:47:32.188Z,9.70
2019-01-21T02:50:35.985Z,9.67
2019-01-21T02:53:25.473Z,9.63
2019-01-21T02:56:33.547Z,10.30
2019-01-21T02:59:31.756Z,9.50
2019-01-21T03:02:51.021Z,9.80
2019-01-21T03:05:42.635Z,9.77
2019-01-21T03:09:07.009Z,10.23
2019-01-21T03:12:15.773Z,10.60
2019-01-21T03:15:11.135Z,8.93
2019-01-21T03:18:11.698Z,9.03
2019-01-21T03:21:09.925Z,10.97
2019-01-21T03:24:31.762Z,9.10
2019-01-21T03:27:16.554Z,8.30
2019-01-21T03:30:06.480Z,8.90
2019-01-21T03:33:12.033Z,8.87
2019-01-21T03:36:03.291Z,8.67
2019-01-21T03:38:56.737Z,8.60
2019-01-21T03:42:16.149Z,9.23
2019-01-21T03:45:21.153Z,8.93
2019-01-21T03:48:07.126Z,9.80
2019-01-21T03:51:32.610Z,9.27
2019-01-21T03:54:29.788Z,9.07
2019-01-21T03:57:36.213Z,10.07
2019-01-21T04:00:15.054Z,11.33
2019-01-21T04:03:25.805Z,10.57
2019-01-21T04:06:06.374Z,11.00
2019-01-21T04:08:47.771Z,12.50
2019-01-21T04:11:36.318Z,11.07
2019-01-21T04:14:57.922Z,12.67
2019-01-21T04:18:04.314Z,12.10
2019-01-21T04:20:48.435Z,11.33
2019-01-21T04:23:44.162Z,12.20
2019-01-21T04:26:44.581Z,11.93
2019-01-21T04:30:00.656Z,12.27
2019-01-21T04:32:59.416Z,13.03
2019-01-21T04:36:00.215Z,12.23
2019-01-21T04:38:53.514Z,11.03
2019-01-21T04:41:44.498Z,13.07
2019-01-21T04:44:29.849Z,10.83
2019-01-21T04:47:35.217Z,11.80
2019-01-21T04:50:55.438Z,11.53
2019-01-21T04:53:48.321Z,10.53
2019-01-21T04:56:57.061Z,10.73
2019-01-21T04:59:52.941Z,10.47
2019-01-21T05:02:46.009Z,11.17
2019-01-21T05:05:48.725Z,11.43
2019-01-21T05:08:50.074Z,10.73
2019-01-21T05:12:09.769Z,11.67
2019-01-21T05:15:24.698Z,12.10
2019-01-21T05:18:51.186Z,10.93
2019-01-21T05:22:09.426Z,12.33
2019-01-21T05:25:21.301Z,11.07
2019-01-21T05:28:33.485Z,10.70
2019-01-21T05:31:52.728Z,11.50
2019-01-21T05:35:03.914Z,11.10
2019-01-21T05:38:05.242Z,11.37
2019-01-21T05:41:25.167Z,10.93
2019-01-21T05:44:41.048Z,10.77
2019-01-21T05:47:44.899Z,10.53
2019-01-21T05:51:01.166Z,11.73
2019-01-21T05:54:14.187Z,12.90
2019-01-21T05:57:24.349Z,10.90
2019-01-21T06:00:24.494Z,11.53
2019-01-21T06:03:23.950Z,12.47
2019-01-21T06:06:37.097Z,11.90
2019-01-21T06:09:27.809Z,12.03
2019-01-21T06:12:46.715Z,12.43
2019-01-21T06:15:56.603Z,11.80
2019-01-21T06:19:14.626Z,11.17
2019-01-21T06:22:55.308Z,10.33
2019-01-21T06:26:00.624Z,11.77
2019-01-21T06:29:15.829Z,11.83
2019-01-21T06:32:10.631Z,11.63
2019-01-21T06:35:17.341Z,10.40
2019-01-21T06:38:12.934Z,12.60
2019-01-21T06:41:13.416Z,13.07
2019-01-21T06:44:32.392Z,11.83
2019-01-21T06:47:35.121Z,12.17
2019-01-21T06:50:19.627Z,12.90
2019-01-21T06:53:18.664Z,13.50
2019-01-21T06:56:23.999Z,12.13
2019-01-21T06:59:44.518Z,12.07
2019-01-21T07:02:53.296Z,11.47
2019-01-21T07:05:51.245Z,12.07
2019-01-21T07:08:56.002Z,11.23
2019-01-21T07:11:57.876Z,12.60
2019-01-21T07:15:07.991Z,12.23
2019-01-21T07:18:39.474Z,13.30
2019-01-21T07:21:51.398Z,11.83
2019-01-21T07:24:50.142Z,12.53
2019-01-21T07:27:34.137Z,12.57
2019-01-21T07:30:29.948Z,12.57
2019-01-21T07:33:40.321Z,12.67
2019-01-21T07:36:47.052Z,13.30
2019-01-21T07:40:01.458Z,12.83
2019-01-21T07:43:10.413Z,12.63
2019-01-21T07:46:21.608Z,13.23
2019-01-21T07:49:40.553Z,13.03
2019-01-21T07:52:50.663Z,12.83
2019-01-21T07:55:52.557Z,13.53
2019-01-21T07:59:06.292Z,13.50
2019-01-21T08:01:57.901Z,14.03
2019-01-21T08:05:02.767Z,12.20
2019-01-21T08:07:48.512Z,14.73
2019-01-21T08:10:43.298Z,13.80
2019-01-21T08:13:26.861Z,13.60
2019-01-21T08:16:29.731Z,14.43
2019-01-21T08:19:34.884Z,14.30
2019-01-21T08:22:30.674Z,16.10
2019-01-21T08:25:39.701Z,16.77
2019-01-21T08:28:36.634Z,15.03
2019-01-21T08:31:42.665Z,14.60
2019-01-21T08:34:26.487Z,14.83
2019-01-21T08:37:31.186Z,14.20
2019-01-21T08:40:29.842Z,15.33
2019-01-21T08:43:30.498Z,14.27
2019-01-21T08:46:28.935Z,14.50
2019-01-21T08:49:34.969Z,14.87
2019-01-21T08:52:30.376Z,14.67
2019-01-21T08:56:07.793Z,14.70
2019-01-21T08:59:00.597Z,15.30
2019-01-21T09:01:48.785Z,15.60
2019-01-21T09:05:01.054Z,15.13
2019-01-21T09:07:56.885Z,14.70
2019-01-21T09:11:09.870Z,13.77
2019-01-21T09:14:05.263Z,16.17
2019-01-21T09:17:07.440Z,16.27
2019-01-21T09:20:10.638Z,16.10
2019-01-21T09:22:50.361Z,14.63
2019-01-21T09:26:04.432Z,15.27
2019-01-21T09:29:11.773Z,15.33
2019-01-21T09:32:16.025Z,15.87
2019-01-21T09:35:32.084Z,14.67
2019-01-21T09:38:45.266Z,14.67
2019-01-21T09:41:30.022Z,14.67
2019-01-21T09:44:35.977Z,15.40
2019-01-21T09:47:03.591Z,16.23
2019-01-21T09:49:31.150Z,15.50
2019-01-21T09:52:08.354Z,15.50
2019-01-21T09:54:39.533Z,15.10
2019-01-21T09:57:24.979Z,16.40
2019-01-21T10:00:02.698Z,14.80
2019-01-21T10:02:42.275Z,15.27
2019-01-21T10:05:15.938Z,14.97
2019-01-21T10:08:20.281Z,15.57
2019-01-21T10:11:15.663Z,16.50
2019-01-21T10:14:16.805Z,15.53
2019-01-21T10:17:00.744Z,16.57
2019-01-21T10:19:50.759Z,14.97
2019-01-21T10:23:02.162Z,15.57
2019-01-21T10:26:09.821Z,15.47
2019-01-21T10:29:16.509Z,15.37
2019-01-21T10:32:34.041Z,16.73
2019-01-21T10:36:02.589Z,15.90
2019-01-21T10:39:11.706Z,15.73
2019-01-21T10:42:14.933Z,15.67
2019-01-21T10:44:53.802Z,14.20
2019-01-21T10:47:43.733Z,15.90
2019-01-21T10:50:31.284Z,16.73
2019-01-21T10:53:28.871Z,16.10
2019-01-21T10:56:38.166Z,15.03
2019-01-21T10:59:17.732Z,15.13
2019-01-21T11:02:46.281Z,15.60
2019-01-21T11:05:48.481Z,15.97
2019-01-21T11:08:51.000Z,16.00
2019-01-21T11:12:06.422Z,15.57
2019-01-21T11:14:49.380Z,16.30
2019-01-21T11:18:00.202Z,17.23
2019-01-21T11:21:10.155Z,16.67
2019-01-21T11:24:23.442Z,16.23
2019-01-21T11:27:24.120Z,16.67
2019-01-21T11:30:17.533Z,16.20
2019-01-21T11:33:22.679Z,15.10
2019-01-21T11:36:22.673Z,16.73
2019-01-21T11:39:21.070Z,15.43
2019-01-21T11:42:20.171Z,16.73
2019-01-21T11:45:21.016Z,16.30
2019-01-21T11:48:33.789Z,16.60
2019-01-21T11:51:37.530Z,15.23
2019-01-21T11:54:57.096Z,16.43
2019-01-21T11:57:56.652Z,16.37
2019-01-21T12:00:48.019Z,16.57
2019-01-21T12:03:25.611Z,16.90
2019-01-21T12:06:09.782Z,14.63
2019-01-21T12:09:09.369Z,15.93
2019-01-21T12:12:09.145Z,15.97
2019-01-21T12:15:18.122Z,15.03
2019-01-21T12:18:26.953Z,16.50
2019-01-21T12:21:58.241Z,16.23
2019-01-21T12:24:59.822Z,14.97
2019-01-21T12:28:12.076Z,15.53
2019-01-21T12:31:09.051Z,14.23
2019-01-21T12:34:19.589Z,16.23
2019-01-21T12:36:56.570Z,14.80
2019-01-21T12:40:10.063Z,15.53
2019-01-21T12:43:26.217Z,14.30
2019-01-21T12:46:32.590Z,16.03
2019-01-21T12:49:25.434Z,15.00
2019-01-21T12:52:38.244Z,15.30
2019-01-21T12:55:32.251Z,15.37
2019-01-21T12:58:40.697Z,14.47
2019-01-21T13:01:57.175Z,13.77
2019-01-21T13:05:06.988Z,13.77
2019-01-21T13:08:14.394Z,15.70
2019-01-21T13:11:04.841Z,15.37
2019-01-21T13:14:11.410Z,14.93
2019-01-21T13:17:18.566Z,13.13
2019-01-21T13:20:40.973Z,13.50
2019-01-21T13:23:41.416Z,14.07
2019-01-21T13:27:07.179Z,15.03
2019-01-21T13:30:02.870Z,13.53
2019-01-21T13:32:58.007Z,14.43
2019-01-21T13:35:38.943Z,14.97
2019-01-21T13:38:43.538Z,15.43
2019-01-21T13:41:30.241Z,14.77
2019-01-21T13:44:44.116Z,15.17
2019-01-21T13:47:59.603Z,15.53
2019-01-21T13:50:50.899Z,14.80
2019-01-21T13:54:04.494Z,15.50
2019-01-21T13:56:57.185Z,15.83
2019-01-21T14:00:19.009Z,14.90
2019-01-21T14:03:18.893Z,15.47
2019-01-21T14:06:16.296Z,15.90
2019-01-21T14:09:17.748Z,16.33
2019-01-21T14:12:03.720Z,15.10
2019-01-21T14:14:57.416Z,14.73
2019-01-21T14:18:04.473Z,15.27
2019-01-21T14:20:47.517Z,15.03
2019-01-21T14:23:52.841Z,14.57
2019-01-21T14:26:55.586Z,15.00
2019-01-21T14:29:40.005Z,15.57
2019-01-21T14:32:59.025Z,13.40
2019-01-21T14:36:04.945Z,14.30
2019-01-21T14:39:07.684Z,13.30
2019-01-21T14:42:24.162Z,14.57
2019-01-21T14:45:39.718Z,15.53
2019-01-21T14:48:45.450Z,14.57
2019-01-21T14:52:00.868Z,14.00
2019-01-21T14:54:51.033Z,14.43
2019-01-21T14:58:04.169Z,13.77
2019-01-21T15:01:26.477Z,13.23
2019-01-21T15:04:27.814Z,14.23
2019-01-21T15:07:10.263Z,14.00
2019-01-21T15:10:26.411Z,14.30
2019-01-21T15:13:39.234Z,15.47
2019-01-21T15:17:01.583Z,13.33
2019-01-21T15:19:40.118Z,12.50
2019-01-21T15:23:01.876Z,13.90
2019-01-21T15:26:16.171Z,13.30
2019-01-21T15:29:25.191Z,12.90
2019-01-21T15:32:23.730Z,14.03
2019-01-21T15:35:15.647Z,13.73
2019-01-21T15:37:56.240Z,14.67
2019-01-21T15:41:08.654Z,14.37
2019-01-21T15:43:48.657Z,13.47
2019-01-21T15:46:55.966Z,13.87
2019-01-21T15:49:57.141Z,13.03
2019-01-21T15:52:33.361Z,14.03
2019-01-21T15:55:37.074Z,14.60
2019-01-21T15:58:54.349Z,15.10
2019-01-21T16:02:00.309Z,13.77
2019-01-21T16:04:51.386Z,13.60
2019-01-21T16:07:36.171Z,14.57
2019-01-21T16:10:40.879Z,13.83
2019-01-21T16:13:43.981Z,14.27
2019-01-21T16:16:57.542Z,14.40
2019-01-21T16:19:31.281Z,14.03
2019-01-21T16:22:39.333Z,14.43
2019-01-21T16:25:43.823Z,14.27
2019-01-21T16:28:41.033Z,13.60
2019-01-21T16:31:57.346Z,14.60
2019-01-21T16:34:52.634Z,16.20
2019-01-21T16:37:45.150Z,14.60
2019-01-21T16:40:53.265Z,13.77
2019-01-21T16:43:22.431Z,14.60
2019-01-21T16:45:51.617Z,15.57
2019-01-21T16:48:20.840Z,15.97
2019-01-21T16:50:49.965Z,17.50
2019-01-21T16:53:19.141Z,16.50
2019-01-21T16:55:48.354Z,16.37
2019-01-21T16:58:17.500Z,14.47
2019-01-21T17:00:46.713Z,15.10
2019-01-21T17:03:15.852Z,16.73
2019-01-21T17:05:44.997Z,14.83
2019-01-21T17:08:14.209Z,15.23
2019-01-21T17:10:43.406Z,15.87
2019-01-21T17:13:12.655Z,16.50
2019-01-21T17:15:41.806Z,16.50
2019-01-21T17:18:11.326Z,16.30
2019-01-21T17:20:40.474Z,16.60
2019-01-21T17:23:09.714Z,16.10
2019-01-21T17:25:38.949Z,15.67
2019-01-21T17:28:08.107Z,16.00
2019-01-21T17:30:37.246Z,15.87
2019-01-21T17:33:06.421Z,15.27
2019-01-21T17:35:35.582Z,16.47
2019-01-21T17:38:05.045Z,16.57
2019-01-21T17:40:34.221Z,16.90
2019-01-21T17:43:03.360Z,16.67
2019-01-21T17:45:32.526Z,16.33
2019-01-21T17:48:01.702Z,15.77
2019-01-21T17:50:30.882Z,17.27
2019-01-21T17:53:00.057Z,17.33
2019-01-21T17:55:29.198Z,15.90
2019-01-21T17:57:58.333Z,16.80
2019-01-21T18:00:27.620Z,16.77
2019-01-21T18:02:56.759Z,17.33
2019-01-21T18:05:26.210Z,18.10
2019-01-21T18:07:55.359Z,17.63
2019-01-21T18:10:24.558Z,16.93
2019-01-21T18:12:53.791Z,16.07
2019-01-21T18:15:22.994Z,18.37
2019-01-21T18:17:52.203Z,17.43
2019-01-21T18:20:23.738Z,16.80
2019-01-21T18:22:52.924Z,18.03
2019-01-21T18:25:22.088Z,17.00
2019-01-21T18:27:51.389Z,17.73
2019-01-21T18:30:23.060Z,17.23
2019-01-21T18:32:52.181Z,18.10
2019-01-21T18:35:21.353Z,17.27
2019-01-21T18:37:50.607Z,17.63
2019-01-21T18:40:20.992Z,27.60
2019-01-21T18:42:51.118Z,18.13
2019-01-21T18:45:24.145Z,17.53
2019-01-21T18:47:53.389Z,17.23
2019-01-21T18:50:22.672Z,17.63
2019-01-21T18:52:52.584Z,18.20
2019-01-21T18:55:21.713Z,18.03
2019-01-21T18:57:56.036Z,17.80
2019-01-21T19:00:25.622Z,18.03
2019-01-21T19:02:54.907Z,17.60
2019-01-21T19:05:24.194Z,17.63
2019-01-21T19:07:53.801Z,18.93
2019-01-21T19:10:23.134Z,17.53
2019-01-21T19:13:11.871Z,19.07
2019-01-21T19:15:41.086Z,17.80
2019-01-21T19:18:10.229Z,19.03
2019-01-21T19:20:39.503Z,17.80
2019-01-21T19:23:08.702Z,18.10
2019-01-21T19:25:37.826Z,18.20
2019-01-21T19:28:06.986Z,18.93
2019-01-21T19:30:37.120Z,19.33
2019-01-21T19:33:06.309Z,18.60
2019-01-21T19:35:37.326Z,18.80
2019-01-21T19:38:06.483Z,16.50
2019-01-21T19:40:35.669Z,18.63
2019-01-21T19:43:04.905Z,19.33
2019-01-21T19:45:34.058Z,19.40
2019-01-21T19:48:03.223Z,18.50
2019-01-21T19:50:32.369Z,18.97
2019-01-21T19:53:01.670Z,18.60
2019-01-21T19:55:39.378Z,19.33
2019-01-21T19:58:09.731Z,17.83
2019-01-21T20:00:39.333Z,19.57
2019-01-21T20:03:08.605Z,18.10
2019-01-21T20:05:37.743Z,19.63
2019-01-21T20:08:07.012Z,18.33
2019-01-21T20:10:36.240Z,18.90
2019-01-21T20:13:05.585Z,19.07
2019-01-21T20:15:34.845Z,18.97
2019-01-21T20:18:04.380Z,20.10
2019-01-21T20:20:36.350Z,20.13
2019-01-21T20:23:05.629Z,18.87
2019-01-21T20:25:34.780Z,19.07
2019-01-21T20:28:03.941Z,19.73
2019-01-21T20:30:33.073Z,18.43
2019-01-21T20:33:02.278Z,18.90
2019-01-21T20:35:31.595Z,19.43
2019-01-21T20:38:01.687Z,19.40
2019-01-21T20:40:31.137Z,19.33
2019-01-21T20:43:00.357Z,20.53
2019-01-21T20:45:29.499Z,19.47
2019-01-21T20:47:58.639Z,19.40
2019-01-21T20:50:29.590Z,21.00
2019-01-21T20:52:58.796Z,18.97
2019-01-21T20:55:27.956Z,19.93
2019-01-21T20:57:57.105Z,19.23
2019-01-21T21:00:28.030Z,19.60
2019-01-21T21:02:57.840Z,20.23
2019-01-21T21:05:27.064Z,19.10
2019-01-21T21:07:56.286Z,19.97
2019-01-21T21:10:25.450Z,19.83
2019-01-21T21:12:54.685Z,20.10
2019-01-21T21:15:26.285Z,18.47
2019-01-21T21:17:55.427Z,19.93
2019-01-21T21:20:24.703Z,18.40
2019-01-21T21:22:53.911Z,20.43
2019-01-21T21:25:23.324Z,19.80
2019-01-21T21:27:53.945Z,20.27
2019-01-21T21:30:28.665Z,19.33
2019-01-21T21:32:58.369Z,18.43
2019-01-21T21:35:27.720Z,20.47
2019-01-21T21:37:56.985Z,18.97
2019-01-21T21:40:26.277Z,20.40
2019-01-21T21:42:55.481Z,19.10
2019-01-21T21:45:24.660Z,18.83
2019-01-21T21:47:54.308Z,19.70
2019-01-21T21:50:31.149Z,20.57
2019-01-21T21:53:00.378Z,20.30
2019-01-21T21:55:29.845Z,20.23
2019-01-21T21:57:59.293Z,20.80
2019-01-21T22:00:29.346Z,19.27
2019-01-21T22:02:58.545Z,18.20
2019-01-21T22:05:27.873Z,20.83
2019-01-21T22:07:57.085Z,19.63
2019-01-21T22:10:28.153Z,21.20
2019-01-21T22:12:57.470Z,19.70
2019-01-21T22:15:27.389Z,19.63
2019-01-21T22:17:56.648Z,20.57
2019-01-21T22:20:26.106Z,19.00
2019-01-21T22:22:55.365Z,20.80
2019-01-21T22:25:24.709Z,18.93
2019-01-21T22:27:53.860Z,20.97
2019-01-21T22:30:28.550Z,19.63
2019-01-21T22:32:57.687Z,19.93
2019-01-21T22:35:27.021Z,21.10
2019-01-21T22:37:56.154Z,19.97
2019-01-21T22:40:25.460Z,19.80
2019-01-21T22:42:54.744Z,20.93
2019-01-21T22:45:24.015Z,20.57
2019-01-21T22:47:56.069Z,20.63
2019-01-21T22:50:25.246Z,20.93
2019-01-21T22:52:54.407Z,21.10
2019-01-21T22:55:23.641Z,21.60
2019-01-21T22:57:52.881Z,18.90
2019-01-21T23:00:54.747Z,20.40
2019-01-21T23:03:24.894Z,18.40
2019-01-21T23:05:54.061Z,19.90
2019-01-21T23:08:23.564Z,21.40
2019-01-21T23:10:52.698Z,20.33
2019-01-21T23:13:21.878Z,20.53
2019-01-21T23:15:51.084Z,19.43
2019-01-21T23:18:20.314Z,19.80
2019-01-21T23:20:49.924Z,20.33
2019-01-21T23:23:19.245Z,20.23
2019-01-21T23:25:48.394Z,21.57
2019-01-21T23:28:17.539Z,21.17
2019-01-21T23:30:47.123Z,20.53
2019-01-21T23:33:16.369Z,19.37
2019-01-21T23:35:47.259Z,19.63
2019-01-21T23:38:16.458Z,19.83
2019-01-21T23:40:45.606Z,20.10
2019-01-21T23:43:15.001Z,20.90
2019-01-21T23:45:44.129Z,21.27
2019-01-21T23:48:13.254Z,19.93
2019-01-21T23:50:43.634Z,20.77
2019-01-21T23:53:12.833Z,21.10
2019-01-21T23:55:41.996Z,20.17
2019-01-21T23:58:11.154Z,20.20
